createdAt,value
2022-08-17T00:02:25.350Z,17.30
2022-08-17T00:04:54.109Z,17.50
2022-08-17T00:07:21.062Z,17.30
2022-08-17T00:09:48.157Z,17.30
2022-08-17T00:12:43.787Z,17.30
2022-08-17T00:15:02.268Z,17.20
2022-08-17T00:17:29.173Z,17.30
2022-08-17T00:19:55.939Z,17.50
2022-08-17T00:22:33.213Z,17.50
2022-08-17T00:25:05.762Z,17.40
2022-08-17T00:27:33.591Z,17.60
2022-08-17T00:30:00.437Z,17.80
2022-08-17T00:33:14.351Z,17.70
2022-08-17T00:35:18.409Z,17.60
2022-08-17T00:37:45.205Z,17.40
2022-08-17T00:40:14.497Z,17.40
2022-08-17T00:42:42.563Z,17.60
2022-08-17T00:45:11.940Z,17.40
2022-08-17T00:47:38.720Z,17.30
2022-08-17T00:50:09.601Z,16.90
2022-08-17T00:52:41.145Z,17.40
2022-08-17T00:55:08.616Z,18.10
2022-08-17T00:57:43.497Z,17.30
2022-08-17T01:00:13.771Z,18.00
2022-08-17T01:02:43.245Z,17.10
2022-08-17T01:05:18.657Z,17.30
2022-08-17T01:07:47.821Z,17.30
2022-08-17T01:11:00.424Z,17.00
2022-08-17T01:13:03.820Z,17.00
2022-08-17T01:15:34.624Z,16.90
2022-08-17T01:18:01.515Z,17.60
2022-08-17T01:20:28.518Z,17.40
2022-08-17T01:22:55.562Z,17.50
2022-08-17T01:25:22.670Z,17.20
2022-08-17T01:27:49.970Z,16.60
2022-08-17T01:30:56.862Z,17.60
2022-08-17T01:33:04.671Z,17.10
2022-08-17T01:35:31.968Z,16.90
2022-08-17T01:37:58.715Z,17.00
2022-08-17T01:40:39.370Z,17.90
2022-08-17T01:43:11.108Z,17.30
2022-08-17T01:45:45.290Z,17.90
2022-08-17T01:48:13.108Z,17.10
2022-08-17T01:50:42.189Z,17.00
2022-08-17T01:53:13.858Z,17.60
2022-08-17T01:55:49.137Z,17.20
2022-08-17T01:58:15.900Z,17.10
2022-08-17T02:00:46.871Z,17.30
2022-08-17T02:03:27.575Z,17.00
2022-08-17T02:05:54.412Z,17.00
2022-08-17T02:08:39.547Z,17.00
2022-08-17T02:11:14.715Z,17.50
2022-08-17T02:13:43.001Z,17.20
2022-08-17T02:16:09.795Z,17.60
2022-08-17T02:18:36.589Z,17.30
2022-08-17T02:21:04.417Z,17.90
2022-08-17T02:23:34.720Z,17.20
2022-08-17T02:26:02.349Z,17.20
2022-08-17T02:28:29.596Z,17.10
2022-08-17T02:31:02.049Z,17.30
2022-08-17T02:33:41.923Z,18.00
2022-08-17T02:36:12.049Z,17.50
2022-08-17T02:38:40.185Z,17.20
2022-08-17T02:41:07.709Z,17.10
2022-08-17T02:43:34.980Z,17.30
2022-08-17T02:46:02.043Z,17.40
2022-08-17T02:48:31.838Z,17.40
2022-08-17T02:51:00.209Z,17.50
2022-08-17T02:53:27.871Z,17.80
2022-08-17T02:56:02.529Z,17.20
2022-08-17T02:58:35.486Z,17.10
2022-08-17T03:01:07.499Z,17.70
2022-08-17T03:03:35.516Z,17.20
2022-08-17T03:06:02.463Z,17.30
2022-08-17T03:08:29.672Z,17.30
2022-08-17T03:10:57.209Z,17.30
2022-08-17T03:13:24.167Z,17.90
2022-08-17T03:15:51.159Z,17.70
2022-08-17T03:18:25.588Z,17.80
2022-08-17T03:20:59.288Z,18.20
2022-08-17T03:23:27.593Z,17.70
2022-08-17T03:25:56.800Z,17.60
2022-08-17T03:28:24.145Z,17.40
2022-08-17T03:30:55.548Z,17.40
2022-08-17T03:33:22.370Z,17.40
2022-08-17T03:35:49.947Z,17.10
2022-08-17T03:38:17.573Z,17.30
2022-08-17T03:40:57.058Z,16.90
2022-08-17T03:43:30.809Z,16.80
2022-08-17T03:46:34.114Z,16.90
2022-08-17T03:49:24.857Z,16.90
2022-08-17T03:52:10.846Z,16.80
2022-08-17T03:54:57.291Z,16.80
2022-08-17T03:57:24.666Z,16.60
2022-08-17T03:59:53.455Z,16.40
2022-08-17T04:02:26.818Z,16.80
2022-08-17T04:04:54.215Z,16.60
2022-08-17T04:07:22.758Z,16.70
2022-08-17T04:09:49.576Z,16.70
2022-08-17T04:12:20.696Z,15.90
2022-08-17T04:14:53.481Z,16.30
2022-08-17T04:17:27.927Z,16.10
2022-08-17T04:19:55.463Z,16.40
2022-08-17T04:22:32.088Z,16.00
2022-08-17T04:25:15.002Z,16.10
2022-08-17T04:27:41.746Z,16.30
2022-08-17T04:30:09.149Z,16.00
2022-08-17T04:33:04.895Z,16.20
2022-08-17T04:35:41.203Z,16.30
2022-08-17T05:00:56.643Z,16.20
2022-08-17T05:03:23.446Z,16.50
2022-08-17T05:05:50.277Z,16.50
2022-08-17T05:08:20.208Z,16.30
2022-08-17T05:10:47.719Z,17.20
2022-08-17T05:13:21.478Z,16.60
2022-08-17T05:15:50.153Z,17.10
2022-08-17T05:18:17.575Z,17.20
2022-08-17T05:20:44.967Z,17.10
2022-08-17T05:23:15.042Z,17.10
2022-08-17T05:25:51.426Z,17.10
2022-08-17T05:28:24.031Z,17.00
2022-08-17T05:30:55.660Z,17.30
2022-08-17T05:33:26.341Z,17.40
2022-08-17T05:35:55.913Z,17.30
2022-08-17T05:38:26.199Z,17.10
2022-08-17T05:40:54.275Z,17.20
2022-08-17T05:43:22.940Z,17.50
2022-08-17T05:46:03.507Z,17.40
2022-08-17T05:48:40.438Z,17.60
2022-08-17T05:51:29.077Z,17.80
2022-08-17T05:54:24.659Z,17.70
2022-08-17T05:57:20.943Z,17.70
2022-08-17T05:59:48.523Z,17.70
2022-08-17T06:02:33.792Z,17.80
2022-08-17T06:05:49.365Z,17.80
2022-08-17T06:08:42.458Z,17.90
2022-08-17T06:11:30.942Z,18.10
2022-08-17T06:14:03.439Z,18.30
2022-08-17T06:16:36.752Z,18.40
2022-08-17T06:19:10.399Z,18.60
2022-08-17T06:21:41.712Z,18.80
2022-08-17T06:24:19.459Z,19.00
2022-08-17T06:26:46.681Z,19.20
2022-08-17T06:29:37.258Z,19.10
2022-08-17T06:32:08.521Z,19.10
2022-08-17T06:34:37.421Z,19.30
2022-08-17T06:37:42.792Z,19.70
2022-08-17T06:40:34.746Z,19.30
2022-08-17T06:43:18.383Z,19.50
2022-08-17T06:45:59.080Z,19.50
2022-08-17T06:48:56.348Z,19.60
2022-08-17T06:51:46.347Z,19.80
2022-08-17T06:54:13.026Z,20.10
2022-08-17T06:56:57.322Z,20.30
2022-08-17T06:59:55.352Z,20.30
2022-08-17T07:02:53.170Z,20.70
2022-08-17T07:05:27.078Z,20.50
2022-08-17T07:08:03.389Z,20.70
2022-08-17T07:10:55.083Z,20.80
2022-08-17T07:13:51.396Z,20.70
2022-08-17T07:16:33.059Z,20.80
2022-08-17T07:19:00.223Z,20.80
2022-08-17T07:21:38.194Z,20.70
2022-08-17T07:24:33.297Z,20.60
2022-08-17T07:27:21.304Z,20.60
2022-08-17T07:29:50.476Z,20.50
2022-08-17T07:32:24.034Z,20.40
2022-08-17T07:35:37.712Z,20.50
2022-08-17T07:38:25.068Z,20.60
2022-08-17T07:41:02.614Z,20.80
2022-08-17T07:43:37.724Z,21.00
2022-08-17T07:46:34.254Z,20.90
2022-08-17T07:49:03.720Z,21.00
2022-08-17T07:51:33.845Z,20.90
2022-08-17T07:54:14.555Z,21.00
2022-08-17T07:56:46.835Z,21.00
2022-08-17T07:59:23.454Z,21.20
2022-08-17T08:02:17.069Z,21.30
2022-08-17T08:05:00.274Z,21.40
2022-08-17T08:07:38.350Z,21.40
2022-08-17T08:10:15.565Z,21.50
2022-08-17T08:12:47.931Z,21.50
2022-08-17T08:15:33.369Z,21.60
2022-08-17T08:18:03.013Z,21.80
2022-08-17T08:20:53.189Z,21.80
2022-08-17T08:24:00.323Z,21.90
2022-08-17T08:26:49.258Z,21.90
2022-08-17T08:29:52.964Z,21.80
2022-08-17T08:32:38.129Z,21.80
2022-08-17T08:35:13.396Z,21.90
2022-08-17T08:38:07.454Z,21.70
2022-08-17T08:40:38.369Z,21.90
2022-08-17T08:43:26.499Z,22.00
2022-08-17T08:46:19.700Z,22.50
2022-08-17T08:49:12.188Z,22.30
2022-08-17T08:52:02.409Z,22.50
2022-08-17T08:54:38.675Z,22.50
2022-08-17T08:57:26.458Z,22.80
2022-08-17T09:00:19.263Z,22.90
2022-08-17T09:03:04.715Z,23.00
2022-08-17T09:05:56.258Z,23.00
2022-08-17T09:08:38.261Z,23.00
2022-08-17T09:11:24.702Z,23.10
2022-08-17T09:14:00.621Z,23.30
2022-08-17T09:16:37.413Z,23.40
2022-08-17T09:19:30.486Z,23.40
2022-08-17T09:22:35.926Z,23.60
2022-08-17T09:25:22.076Z,23.80
2022-08-17T09:27:54.829Z,23.90
2022-08-17T09:30:23.739Z,24.00
2022-08-17T09:32:56.365Z,24.10
2022-08-17T09:35:37.069Z,24.20
2022-08-17T09:38:16.429Z,24.40
2022-08-17T09:40:57.275Z,24.50
2022-08-17T09:43:36.696Z,24.70
2022-08-17T09:46:11.556Z,24.70
2022-08-17T09:48:44.216Z,24.90
2022-08-17T09:51:24.015Z,25.00
2022-08-17T09:53:51.041Z,25.10
2022-08-17T09:56:20.582Z,25.20
2022-08-17T09:59:05.519Z,25.30
2022-08-17T10:01:44.520Z,25.30
2022-08-17T10:04:30.655Z,25.30
2022-08-17T10:07:19.628Z,25.30
2022-08-17T10:09:46.334Z,25.30
2022-08-17T10:12:34.139Z,25.50
2022-08-17T10:15:24.879Z,25.40
2022-08-17T10:17:55.580Z,25.50
2022-08-17T10:20:31.803Z,25.70
2022-08-17T10:23:30.418Z,25.80
2022-08-17T10:26:14.776Z,25.90
2022-08-17T10:28:51.634Z,26.00
2022-08-17T10:31:35.536Z,26.00
2022-08-17T10:34:36.198Z,26.20
2022-08-17T10:37:17.460Z,26.30
2022-08-17T10:40:19.278Z,26.40
2022-08-17T10:42:55.204Z,26.60
2022-08-17T10:45:28.094Z,26.80
2022-08-17T10:48:06.317Z,26.90
2022-08-17T10:51:02.111Z,27.00
2022-08-17T10:53:31.737Z,27.00
2022-08-17T10:56:13.920Z,27.00
2022-08-17T10:58:57.269Z,27.20
2022-08-17T11:01:34.265Z,27.20
2022-08-17T11:04:18.102Z,27.20
2022-08-17T11:06:52.884Z,27.20
2022-08-17T11:09:51.809Z,27.30
2022-08-17T11:12:37.866Z,27.40
2022-08-17T11:15:08.432Z,27.40
2022-08-17T11:18:19.978Z,27.50
2022-08-17T11:21:23.032Z,27.60
2022-08-17T11:24:14.816Z,27.70
2022-08-17T11:26:48.828Z,27.80
2022-08-17T11:29:29.897Z,27.80
2022-08-17T11:32:01.916Z,27.50
2022-08-17T11:34:31.792Z,27.70
2022-08-17T11:37:27.578Z,27.70
2022-08-17T11:40:29.593Z,27.70
2022-08-17T11:43:42.297Z,27.80
2022-08-17T11:46:59.180Z,27.80
2022-08-17T11:50:27.238Z,27.80
2022-08-17T11:52:55.039Z,27.70
2022-08-17T11:55:38.536Z,27.80
2022-08-17T11:58:25.880Z,27.80
2022-08-17T12:01:03.388Z,27.80
2022-08-17T12:03:33.357Z,27.90
2022-08-17T12:06:17.563Z,28.00
2022-08-17T12:08:55.297Z,27.90
2022-08-17T12:12:11.921Z,28.10
2022-08-17T12:15:08.878Z,28.10
2022-08-17T12:17:41.328Z,28.20
2022-08-17T12:20:15.563Z,28.20
2022-08-17T12:22:53.425Z,28.20
2022-08-17T12:25:33.227Z,28.30
2022-08-17T12:28:06.168Z,28.40
2022-08-17T12:30:35.043Z,28.40
2022-08-17T12:33:02.433Z,28.40
2022-08-17T12:35:35.339Z,28.50
2022-08-17T12:38:06.454Z,28.30
2022-08-17T12:40:58.138Z,28.20
2022-08-17T12:43:29.190Z,28.30
2022-08-17T12:45:59.543Z,28.40
2022-08-17T12:48:29.056Z,28.60
2022-08-17T12:51:01.844Z,28.60
2022-08-17T12:53:31.748Z,28.60
2022-08-17T12:56:01.589Z,28.30
2022-08-17T12:58:47.450Z,28.10
2022-08-17T13:01:17.442Z,27.80
2022-08-17T13:03:49.575Z,27.70
2022-08-17T13:06:37.336Z,27.80
2022-08-17T13:09:19.996Z,27.90
2022-08-17T13:11:53.600Z,28.10
2022-08-17T13:14:20.482Z,28.20
2022-08-17T13:16:59.872Z,28.40
2022-08-17T13:19:39.908Z,28.50
2022-08-17T13:22:12.459Z,28.60
2022-08-17T13:24:53.020Z,28.60
2022-08-17T13:27:21.333Z,28.40
2022-08-17T13:29:53.592Z,28.50
2022-08-17T13:32:43.843Z,28.50
2022-08-17T13:35:39.741Z,28.50
2022-08-17T13:38:37.465Z,28.50
2022-08-17T13:41:06.370Z,28.50
2022-08-17T13:43:46.440Z,28.50
2022-08-17T13:46:28.354Z,28.40
2022-08-17T13:49:05.514Z,28.40
2022-08-17T13:51:46.921Z,28.60
2022-08-17T13:54:26.074Z,29.10
2022-08-17T13:57:02.203Z,29.40
2022-08-17T13:59:55.215Z,29.20
2022-08-17T14:02:28.270Z,29.30
2022-08-17T14:04:55.966Z,29.90
2022-08-17T14:07:29.968Z,30.20
2022-08-17T14:10:20.197Z,30.70
2022-08-17T14:12:47.003Z,31.10
2022-08-17T14:15:18.001Z,31.70
2022-08-17T14:17:44.765Z,31.90
2022-08-17T14:20:13.504Z,31.80
2022-08-17T14:22:45.086Z,32.40
2022-08-17T14:25:14.312Z,32.90
2022-08-17T14:27:43.544Z,33.30
2022-08-17T14:30:21.856Z,33.20
2022-08-17T14:32:49.534Z,33.80
2022-08-17T14:35:17.110Z,33.50
2022-08-17T14:37:45.688Z,33.20
2022-08-17T14:40:14.122Z,32.40
2022-08-17T14:42:43.433Z,31.80
2022-08-17T14:45:30.459Z,31.60
2022-08-17T14:48:04.483Z,31.60
2022-08-17T14:50:32.158Z,31.70
2022-08-17T14:53:04.514Z,31.60
2022-08-17T14:55:32.441Z,31.40
2022-08-17T14:57:59.352Z,31.00
2022-08-17T15:00:26.887Z,30.70
2022-08-17T15:02:56.215Z,30.50
2022-08-17T15:05:25.996Z,30.30
2022-08-17T15:07:56.322Z,30.20
2022-08-17T15:10:25.777Z,29.90
2022-08-17T15:12:52.759Z,29.70
2022-08-17T15:15:19.556Z,29.20
2022-08-17T15:17:46.544Z,28.90
2022-08-17T15:20:22.846Z,28.90
2022-08-17T15:22:50.842Z,28.80
2022-08-17T15:25:19.369Z,28.70
2022-08-17T15:27:46.372Z,28.60
2022-08-17T15:30:13.447Z,28.50
2022-08-17T15:32:51.307Z,28.40
2022-08-17T15:35:27.536Z,28.40
2022-08-17T15:37:57.406Z,28.40
2022-08-17T15:40:25.099Z,28.20
2022-08-17T15:42:52.369Z,28.00
2022-08-17T15:45:22.987Z,27.90
2022-08-17T15:47:49.891Z,27.70
2022-08-17T15:50:16.855Z,27.70
2022-08-17T15:52:44.966Z,27.60
2022-08-17T15:55:14.143Z,27.60
2022-08-17T15:57:40.973Z,27.40
2022-08-17T16:00:08.974Z,27.30
2022-08-17T16:03:29.440Z,27.20
2022-08-17T16:05:25.367Z,27.20
2022-08-17T16:07:53.481Z,27.20
2022-08-17T16:10:21.106Z,27.10
2022-08-17T16:12:50.140Z,27.00
2022-08-17T16:15:17.892Z,26.90
2022-08-17T16:17:44.623Z,26.90
2022-08-17T16:20:20.408Z,26.90
2022-08-17T16:22:49.588Z,26.80
2022-08-17T16:25:21.585Z,26.80
2022-08-17T16:27:54.860Z,26.60
2022-08-17T16:30:25.080Z,26.60
2022-08-17T16:32:53.979Z,26.50
2022-08-17T16:35:25.051Z,26.30
2022-08-17T16:37:54.378Z,26.30
2022-08-17T16:40:22.164Z,26.20
2022-08-17T16:42:49.804Z,26.10
2022-08-17T16:45:22.081Z,26.10
2022-08-17T16:47:50.194Z,26.00
2022-08-17T16:50:21.147Z,26.00
2022-08-17T16:52:49.293Z,26.10
2022-08-17T16:55:21.459Z,25.90
2022-08-17T16:57:50.228Z,25.90
2022-08-17T17:00:21.005Z,25.90
2022-08-17T17:02:49.728Z,25.80
2022-08-17T17:05:44.790Z,25.80
2022-08-17T17:08:21.040Z,25.70
2022-08-17T17:10:50.768Z,25.60
2022-08-17T17:13:27.636Z,25.60
2022-08-17T17:16:15.652Z,25.60
2022-08-17T17:19:08.004Z,25.60
2022-08-17T17:22:29.571Z,25.60
2022-08-17T17:25:12.973Z,25.60
2022-08-17T17:28:01.530Z,25.50
2022-08-17T17:30:49.964Z,25.50
2022-08-17T17:33:27.405Z,25.40
2022-08-17T17:36:06.960Z,25.30
2022-08-17T17:38:42.636Z,25.30
2022-08-17T17:41:17.116Z,25.20
2022-08-17T17:43:43.878Z,25.30
2022-08-17T17:46:28.723Z,25.10
2022-08-17T17:48:57.468Z,25.10
2022-08-17T17:52:09.525Z,25.20
2022-08-17T17:54:58.501Z,24.90
2022-08-17T17:57:31.563Z,24.80
2022-08-17T18:00:22.059Z,24.80
2022-08-17T18:03:13.014Z,24.60
2022-08-17T18:05:39.727Z,24.60
2022-08-17T18:08:32.105Z,24.60
2022-08-17T18:11:26.729Z,24.50
2022-08-17T18:14:19.863Z,24.40
2022-08-17T18:16:48.039Z,24.40
2022-08-17T18:19:20.064Z,24.40
2022-08-17T18:21:54.935Z,24.30
2022-08-17T18:24:33.899Z,24.30
2022-08-17T18:27:02.786Z,24.20
2022-08-17T18:29:44.023Z,24.30
2022-08-17T18:32:18.635Z,24.30
2022-08-17T18:34:49.047Z,24.30
2022-08-17T18:37:50.134Z,24.10
2022-08-17T18:40:17.259Z,24.00
2022-08-17T18:42:56.773Z,24.00
2022-08-17T18:45:46.893Z,23.90
2022-08-17T18:48:32.890Z,23.80
2022-08-17T18:51:20.057Z,23.70
2022-08-17T18:54:04.330Z,23.60
2022-08-17T18:56:37.099Z,23.40
2022-08-17T18:59:27.050Z,23.30
2022-08-17T19:01:59.206Z,23.20
2022-08-17T19:04:33.957Z,23.10
2022-08-17T19:07:10.647Z,23.20
2022-08-17T19:09:43.867Z,23.00
2022-08-17T19:12:34.246Z,22.90
2022-08-17T19:15:02.447Z,23.00
2022-08-17T19:17:37.644Z,22.90
2022-08-17T19:20:09.412Z,22.90
2022-08-17T19:23:19.836Z,22.90
2022-08-17T19:25:50.686Z,22.90
2022-08-17T19:28:41.011Z,22.90
2022-08-17T19:31:16.601Z,22.90
2022-08-17T19:33:43.730Z,22.90
2022-08-17T19:36:52.161Z,22.90
2022-08-17T19:39:43.140Z,22.90
2022-08-17T19:42:37.176Z,22.90
2022-08-17T19:45:32.629Z,22.90
2022-08-17T19:48:19.632Z,22.90
2022-08-17T19:50:58.110Z,23.00
2022-08-17T19:53:54.082Z,23.40
2022-08-17T19:56:33.086Z,23.00
2022-08-17T19:59:21.751Z,23.00
2022-08-17T20:02:01.204Z,22.90
2022-08-17T20:04:39.156Z,22.70
2022-08-17T20:07:16.745Z,22.50
2022-08-17T20:10:05.707Z,22.40
2022-08-17T20:12:37.008Z,22.30
2022-08-17T20:15:25.271Z,22.20
2022-08-17T20:17:52.463Z,22.20
2022-08-17T20:20:21.921Z,22.10
2022-08-17T20:22:58.221Z,22.10
2022-08-17T20:25:33.818Z,22.10
2022-08-17T20:28:27.915Z,22.10
2022-08-17T20:30:55.503Z,21.90
2022-08-17T20:33:32.867Z,22.10
2022-08-17T20:36:11.248Z,22.00
2022-08-17T20:38:58.743Z,21.90
2022-08-17T20:41:29.064Z,21.90
2022-08-17T20:43:59.006Z,21.90
2022-08-17T20:46:40.768Z,21.60
2022-08-17T20:49:14.576Z,21.60
2022-08-17T20:52:39.614Z,21.70
2022-08-17T20:55:06.940Z,21.80
2022-08-17T20:57:36.430Z,21.70
2022-08-17T21:00:33.517Z,21.70
2022-08-17T21:03:50.630Z,21.60
2022-08-17T21:06:19.510Z,21.50
2022-08-17T21:08:55.237Z,21.50
2022-08-17T21:12:03.003Z,21.30
2022-08-17T21:14:43.597Z,21.20
2022-08-17T21:17:36.671Z,21.20
2022-08-17T21:20:51.236Z,21.20
2022-08-17T21:23:49.623Z,21.10
2022-08-17T21:26:55.388Z,20.90
2022-08-17T21:29:31.397Z,20.80
2022-08-17T21:31:59.400Z,20.70
2022-08-17T21:34:29.208Z,20.70
2022-08-17T21:37:16.531Z,20.70
2022-08-17T21:39:50.270Z,20.70
2022-08-17T21:42:22.810Z,20.70
2022-08-17T21:44:52.135Z,20.60
2022-08-17T21:47:26.692Z,20.50
2022-08-17T21:49:54.254Z,20.40
2022-08-17T21:52:24.038Z,20.50
2022-08-17T21:55:00.303Z,20.30
2022-08-17T21:57:28.807Z,20.10
2022-08-17T21:59:59.932Z,20.30
2022-08-17T22:02:36.105Z,20.30
2022-08-17T22:05:14.518Z,20.30
2022-08-17T22:07:46.426Z,20.20
2022-08-17T22:10:34.304Z,20.00
2022-08-17T22:13:04.001Z,20.10
2022-08-17T22:15:31.019Z,20.10
2022-08-17T22:18:01.732Z,20.10
2022-08-17T22:20:28.673Z,20.00
2022-08-17T22:23:14.069Z,20.10
2022-08-17T22:26:09.628Z,19.80
2022-08-17T22:28:56.393Z,19.80
2022-08-17T22:31:24.833Z,19.60
2022-08-17T22:34:03.487Z,19.80
2022-08-17T22:36:39.242Z,20.00
2022-08-17T22:39:08.981Z,20.00
2022-08-17T22:41:50.771Z,20.10
2022-08-17T22:44:36.410Z,19.80
2022-08-17T22:47:16.238Z,19.60
2022-08-17T22:50:01.296Z,19.50
2022-08-17T22:52:59.080Z,19.40
2022-08-17T22:55:45.010Z,19.40
2022-08-17T22:58:34.673Z,19.40
2022-08-17T23:01:28.397Z,19.30
2022-08-17T23:04:04.123Z,19.40
2022-08-17T23:06:34.999Z,19.50
2022-08-17T23:09:04.293Z,19.60
2022-08-17T23:11:49.231Z,19.60
2022-08-17T23:14:20.858Z,19.40
2022-08-17T23:16:50.154Z,19.40
2022-08-17T23:19:20.697Z,19.40
2022-08-17T23:21:51.193Z,19.70
2022-08-17T23:24:23.832Z,19.20
2022-08-17T23:26:50.706Z,19.20
2022-08-17T23:29:17.662Z,19.20
2022-08-17T23:31:44.415Z,19.10
2022-08-17T23:34:14.632Z,19.20
2022-08-17T23:36:42.100Z,20.00
2022-08-17T23:39:08.864Z,19.70
2022-08-17T23:41:40.017Z,19.20
2022-08-17T23:44:07.244Z,19.30
2022-08-17T23:46:34.867Z,19.40
2022-08-17T23:49:01.783Z,19.40
2022-08-17T23:51:34.813Z,19.40
2022-08-17T23:54:11.590Z,19.50
2022-08-17T23:56:45.878Z,19.40
2022-08-17T23:59:14.330Z,19.40
